Time,TemperatureF,DewpointF,PressureIn,WindDirection,WindDirectionDegrees,WindSpeedMPH,WindSpeedGustMPH,Humidity,HourlyPrecipIn,Conditions,Clouds,dailyrainin,SolarRadiationWatts/m^2,SoftwareType,DateUTC
2013-05-29 00:03:00,53.5,49.1,29.55,West,281,2.7,8.1,85,0.00,CLR,,0.00,0.0,WeatherDisplay:10.37,2013-05-28 22:03:00,
2013-05-29 00:08:00,53.6,49.2,29.55,West,279,4.9,5.8,85,0.00,CLR,,0.00,0.0,WeatherDisplay:10.37,2013-05-28 22:08:00,
2013-05-29 00:13:00,53.5,48.8,29.55,West,280,3.5,7.0,84,0.00,CLR,,0.00,0.0,WeatherDisplay:10.37,2013-05-28 22:13:00,
2013-05-29 00:18:00,53.5,48.8,29.55,West,280,3.5,4.6,84,0.00,CLR,,0.00,0.0,WeatherDisplay:10.37,2013-05-28 22:18:00,
2013-05-29 00:23:00,53.4,48.7,29.55,West,279,3.8,5.8,84,0.00,CLR,,0.00,0.0,WeatherDisplay:10.37,2013-05-28 22:23:00,
2013-05-29 00:28:00,53.4,48.3,29.55,WNW,282,4.4,8.1,83,0.00,CLR,,0.00,0.0,WeatherDisplay:10.37,2013-05-28 22:28:00,
2013-05-29 00:33:00,53.3,48.2,29.55,WNW,291,5.0,8.1,83,0.00,CLR,,0.00,0.0,WeatherDisplay:10.37,2013-05-28 22:33:00,
2013-05-29 00:38:00,53.2,48.2,29.56,WNW,291,1.3,4.6,83,0.00,CLR,,0.00,0.0,WeatherDisplay:10.37,2013-05-28 22:38:00,
2013-05-29 00:43:00,53.2,48.5,29.56,WNW,290,2.7,4.0,84,0.00,FEW,,0.00,0.0,WeatherDisplay:10.37,2013-05-28 22:43:00,
2013-05-29 00:48:00,53.2,48.5,29.56,WNW,298,2.7,5.8,84,0.00,FEW,,0.00,0.0,WeatherDisplay:10.37,2013-05-28 22:48:00,
2013-05-29 00:53:00,53.1,48.4,29.56,WNW,299,5.2,9.2,84,0.00,FEW,,0.00,0.0,WeatherDisplay:10.37,2013-05-28 22:53:00,
2013-05-29 00:58:00,53.0,48.3,29.56,WNW,290,3.7,6.9,84,0.00,FEW,,0.00,0.0,WeatherDisplay:10.37,2013-05-28 22:58:00,
2013-05-29 01:03:00,52.9,48.2,29.56,WNW,294,4.5,9.2,84,0.00,BKN,,0.00,0.0,WeatherDisplay:10.37,2013-05-28 23:03:00,
2013-05-29 01:08:00,52.9,48.5,29.56,WNW,297,4.0,4.6,85,0.00,BKN,,0.00,0.0,WeatherDisplay:10.37,2013-05-28 23:08:00,
2013-05-29 01:13:00,52.9,48.5,29.56,WNW,292,3.6,4.0,85,0.00,BKN,,0.00,0.0,WeatherDisplay:10.37,2013-05-28 23:13:00,
2013-05-29 01:18:00,52.8,48.7,29.56,WNW,292,3.5,6.9,86,0.00,BKN,,0.00,0.0,WeatherDisplay:10.37,2013-05-28 23:18:00,
2013-05-29 01:23:00,52.8,48.7,29.56,WNW,293,4.5,5.8,86,0.00,BKN,,0.00,0.0,WeatherDisplay:10.37,2013-05-28 23:23:00,
2013-05-29 01:28:00,52.8,48.7,29.56,WNW,286,2.8,5.8,86,0.00,BKN,,0.00,0.0,WeatherDisplay:10.37,2013-05-28 23:28:00,
2013-05-29 01:33:00,52.8,48.7,29.56,West,261,3.3,4.0,86,0.00,OVC,,0.00,0.0,WeatherDisplay:10.37,2013-05-28 23:33:00,
2013-05-29 01:38:00,52.8,48.7,29.56,NW,306,4.7,11.5,86,0.00,OVC,,0.00,0.0,WeatherDisplay:10.37,2013-05-28 23:38:00,
2013-05-29 01:43:00,52.6,48.8,29.56,WNW,295,6.0,8.1,87,0.00,OVC,,0.00,0.0,WeatherDisplay:10.37,2013-05-28 23:43:00,
2013-05-29 01:48:00,52.5,48.7,29.56,WNW,290,4.7,6.9,87,0.00,OVC,,0.00,0.0,WeatherDisplay:10.37,2013-05-28 23:48:00,
2013-05-29 01:53:00,52.4,48.9,29.56,WNW,290,4.7,6.9,88,0.00,OVC,,0.00,0.0,WeatherDisplay:10.37,2013-05-28 23:53:00,
2013-05-29 01:58:00,52.3,48.8,29.56,WNW,290,4.0,6.9,88,0.00,OVC,,0.00,0.0,WeatherDisplay:10.37,2013-05-28 23:58:00,
2013-05-29 02:03:00,52.3,48.8,29.55,WNW,284,5.3,9.2,88,0.00,OVC,,0.00,0.0,WeatherDisplay:10.37,2013-05-29 00:03:00,
2013-05-29 02:08:00,52.2,48.7,29.55,WNW,284,7.1,10.4,88,0.00,OVC,,0.00,0.0,WeatherDisplay:10.37,2013-05-29 00:08:00,
2013-05-29 02:13:00,52.0,48.5,29.55,WNW,285,5.9,8.1,88,0.00,OVC,,0.00,0.0,WeatherDisplay:10.37,2013-05-29 00:13:00,
2013-05-29 02:18:00,51.9,48.7,29.55,West,277,3.7,5.8,89,0.00,OVC,,0.00,0.0,WeatherDisplay:10.37,2013-05-29 00:18:00,
2013-05-29 02:23:00,51.7,48.5,29.55,West,273,8.6,14.0,89,0.00,OVC,,0.00,0.0,WeatherDisplay:10.37,2013-05-29 00:23:00,
2013-05-29 02:28:00,51.6,48.4,29.55,West,263,5.0,9.2,89,0.00,OVC,,0.00,0.0,WeatherDisplay:10.37,2013-05-29 00:28:00,
2013-05-29 02:34:00,51.5,48.3,29.55,WNW,287,5.5,10.4,89,0.00,OVC,,0.00,0.0,WeatherDisplay:10.37,2013-05-29 00:34:00,
2013-05-29 02:39:00,51.4,48.2,29.55,WNW,297,3.9,6.9,89,0.00,OVC,,0.00,0.0,WeatherDisplay:10.37,2013-05-29 00:39:00,
2013-05-29 02:44:00,51.4,48.2,29.55,WNW,298,3.7,8.1,89,0.00,OVC,,0.00,0.0,WeatherDisplay:10.37,2013-05-29 00:44:00,
2013-05-29 02:49:00,51.4,48.2,29.55,WNW,296,2.3,5.8,89,0.00,OVC,,0.00,0.0,WeatherDisplay:10.37,2013-05-29 00:49:00,
2013-05-29 02:54:00,51.3,48.1,29.55,WNW,297,2.9,6.0,89,0.00,OVC,,0.00,0.0,WeatherDisplay:10.37,2013-05-29 00:54:00,
2013-05-29 02:59:00,51.2,48.0,29.54,WNW,294,4.9,9.0,89,0.00,OVC,,0.00,0.0,WeatherDisplay:10.37,2013-05-29 00:59:00,
2013-05-29 03:04:00,51.0,47.9,29.54,WNW,294,7.5,10.4,89,0.00,OVC,,0.00,0.0,WeatherDisplay:10.37,2013-05-29 01:04:00,
2013-05-29 03:09:00,50.9,47.8,29.54,West,277,5.2,8.1,89,0.00,BKN,,0.00,0.0,WeatherDisplay:10.37,2013-05-29 01:09:00,
2013-05-29 03:14:00,50.8,47.7,29.55,WNW,302,4.7,9.2,89,0.00,BKN,,0.00,0.0,WeatherDisplay:10.37,2013-05-29 01:14:00,
2013-05-29 03:19:00,50.8,47.4,29.54,WNW,297,4.0,6.0,88,0.00,BKN,,0.00,0.0,WeatherDisplay:10.37,2013-05-29 01:19:00,
2013-05-29 03:24:00,50.8,47.4,29.54,WNW,288,3.8,5.8,88,0.00,BKN,,0.00,0.0,WeatherDisplay:10.37,2013-05-29 01:24:00,
2013-05-29 03:29:00,50.8,47.4,29.54,West,277,6.4,11.5,88,0.00,BKN,,0.00,0.0,WeatherDisplay:10.37,2013-05-29 01:29:00,
2013-05-29 03:34:00,50.9,47.5,29.54,West,275,4.9,10.4,88,0.00,BKN,,0.00,0.0,WeatherDisplay:10.37,2013-05-29 01:34:00,
2013-05-29 03:39:00,50.9,47.5,29.54,West,277,2.4,6.0,88,0.00,BKN,,0.00,0.0,WeatherDisplay:10.37,2013-05-29 01:39:00,
2013-05-29 03:44:00,50.9,47.5,29.54,West,272,6.2,9.2,88,0.00,BKN,,0.00,0.0,WeatherDisplay:10.37,2013-05-29 01:44:00,
2013-05-29 03:49:00,50.9,47.5,29.54,WNW,290,5.0,10.4,88,0.00,BKN,,0.00,0.0,WeatherDisplay:10.37,2013-05-29 01:49:00,
2013-05-29 03:54:00,50.9,47.5,29.54,West,279,4.3,8.1,88,0.00,BKN,,0.00,0.0,WeatherDisplay:10.37,2013-05-29 01:54:00,
2013-05-29 03:59:00,50.9,47.5,29.54,West,280,1.7,8.1,88,0.00,BKN,,0.00,0.0,WeatherDisplay:10.37,2013-05-29 01:59:00,
2013-05-29 04:04:00,50.9,47.5,29.54,West,278,5.3,10.4,88,0.00,BKN,,0.00,0.0,WeatherDisplay:10.37,2013-05-29 02:04:00,
2013-05-29 04:09:00,50.7,47.3,29.54,WNW,300,5.3,13.8,88,0.00,BKN,,0.00,0.0,WeatherDisplay:10.37,2013-05-29 02:09:00,
2013-05-29 04:14:00,50.6,47.2,29.54,West,277,6.0,10.4,88,0.00,BKN,,0.00,0.0,WeatherDisplay:10.37,2013-05-29 02:14:00,
2013-05-29 04:19:00,50.6,47.2,29.54,WNW,283,4.1,4.6,88,0.00,BKN,,0.00,0.0,WeatherDisplay:10.37,2013-05-29 02:19:00,
2013-05-29 04:24:00,50.6,47.5,29.54,WNW,286,3.1,5.0,89,0.00,BKN,,0.00,0.0,WeatherDisplay:10.37,2013-05-29 02:24:00,
2013-05-29 04:29:00,50.6,47.5,29.54,WNW,286,3.3,6.9,89,0.00,BKN,,0.00,0.0,WeatherDisplay:10.37,2013-05-29 02:29:00,
2013-05-29 04:34:00,50.6,47.5,29.54,West,280,4.7,10.4,89,0.00,-RA,,0.00,0.0,WeatherDisplay:10.37,2013-05-29 02:34:00,
2013-05-29 04:39:00,50.4,47.3,29.54,West,268,5.0,9.2,89,0.00,-RA,,0.00,0.0,WeatherDisplay:10.37,2013-05-29 02:39:00,
2013-05-29 04:44:00,50.4,47.3,29.54,West,280,4.1,9.2,89,0.00,-RA,,0.00,0.0,WeatherDisplay:10.37,2013-05-29 02:44:00,
2013-05-29 04:49:00,50.4,47.3,29.54,West,263,3.5,10.4,89,0.00,-RA,,0.00,0.0,WeatherDisplay:10.37,2013-05-29 02:49:00,
2013-05-29 04:54:00,50.4,47.3,29.54,WNW,291,4.9,8.1,89,0.00,-RA,,0.00,0.0,WeatherDisplay:10.37,2013-05-29 02:54:00,
2013-05-29 04:59:00,50.4,47.6,29.54,West,273,5.4,7.0,90,0.00,-RA,,0.00,0.0,WeatherDisplay:10.37,2013-05-29 02:59:00,
2013-05-29 05:04:00,50.4,47.6,29.54,West,278,4.5,6.9,90,0.00,-RA,,0.00,0.0,WeatherDisplay:10.37,2013-05-29 03:04:00,
2013-05-29 05:09:00,50.3,47.5,29.54,West,271,6.3,10.4,90,0.00,-RA,,0.00,0.0,WeatherDisplay:10.37,2013-05-29 03:09:00,
2013-05-29 05:14:00,50.2,47.4,29.54,West,275,3.6,10.4,90,0.00,-RA,,0.00,0.0,WeatherDisplay:10.37,2013-05-29 03:14:00,
2013-05-29 05:19:00,50.1,47.3,29.54,WNW,284,5.7,9.2,90,0.00,-RA,,0.00,0.0,WeatherDisplay:10.37,2013-05-29 03:19:00,
2013-05-29 05:24:00,50.1,47.3,29.54,WNW,292,2.7,6.9,90,0.00,-RA,,0.00,0.0,WeatherDisplay:10.37,2013-05-29 03:24:00,
2013-05-29 05:29:00,50.0,47.2,29.54,West,271,3.1,8.1,90,0.00,-RA,,0.00,0.0,WeatherDisplay:10.37,2013-05-29 03:29:00,
2013-05-29 05:34:00,50.0,47.5,29.54,West,267,3.7,8.1,91,0.00, +DZ,,0.00,0.0,WeatherDisplay:10.37,2013-05-29 03:34:00,
2013-05-29 05:39:00,50.0,47.5,29.53,West,265,4.0,8.1,91,0.00, +DZ,,0.00,0.0,WeatherDisplay:10.37,2013-05-29 03:39:00,
2013-05-29 05:44:00,50.0,47.5,29.53,West,279,4.6,5.8,91,0.00, +DZ,,0.00,0.0,WeatherDisplay:10.37,2013-05-29 03:44:00,
2013-05-29 05:49:00,49.9,47.4,29.53,WNW,288,3.2,8.1,91,0.00, +DZ,,0.00,0.0,WeatherDisplay:10.37,2013-05-29 03:49:00,
2013-05-29 05:54:00,49.8,47.5,29.54,WNW,287,2.8,3.5,92,0.00, +DZ,,0.00,0.0,WeatherDisplay:10.37,2013-05-29 03:54:00,
2013-05-29 05:59:00,49.8,47.5,29.54,West,275,5.1,9.0,92,0.00, +DZ,,0.00,0.0,WeatherDisplay:10.37,2013-05-29 03:59:00,
2013-05-29 06:01:00,49.7,47.5,29.53,West,275,4.5,8.1,92,0.00, +DZ,,0.00,0.0,WeatherDisplay:10.37,2013-05-29 04:01:00,
2013-05-29 06:06:00,49.7,47.5,29.53,West,271,3.7,6.9,92,0.00,FEW,,0.00,0.0,WeatherDisplay:10.37,2013-05-29 04:06:00,
2013-05-29 06:11:00,49.7,47.5,29.53,West,271,3.9,8.1,92,0.00,FEW,,0.00,0.0,WeatherDisplay:10.37,2013-05-29 04:11:00,
2013-05-29 06:16:00,49.6,47.4,29.53,West,261,4.2,9.2,92,0.00,FEW,,0.00,0.0,WeatherDisplay:10.37,2013-05-29 04:16:00,
2013-05-29 06:21:00,49.4,47.2,29.53,West,278,4.1,6.0,92,0.00,FEW,,0.00,0.0,WeatherDisplay:10.37,2013-05-29 04:21:00,
2013-05-29 06:26:00,49.5,47.3,29.53,West,275,5.3,6.9,92,0.00,FEW,,0.00,0.0,WeatherDisplay:10.37,2013-05-29 04:26:00,
2013-05-29 06:31:00,49.6,47.4,29.52,West,274,5.7,9.2,92,0.00,OVC,,0.00,5.0,WeatherDisplay:10.37,2013-05-29 04:31:00,
2013-05-29 06:36:00,49.6,47.4,29.52,WSW,257,4.0,7.0,92,0.00,OVC,,0.00,5.0,WeatherDisplay:10.37,2013-05-29 04:36:00,
2013-05-29 06:41:00,49.5,47.3,29.53,West,277,5.3,8.1,92,0.00,OVC,,0.00,5.0,WeatherDisplay:10.37,2013-05-29 04:41:00,
2013-05-29 06:46:00,49.5,47.3,29.53,WSW,255,4.2,10.4,92,0.00,OVC,,0.00,5.0,WeatherDisplay:10.37,2013-05-29 04:46:00,
2013-05-29 06:51:00,49.5,47.3,29.53,WSW,253,3.3,5.0,92,0.00,OVC,,0.00,5.0,WeatherDisplay:10.37,2013-05-29 04:51:00,
2013-05-29 06:56:00,49.5,47.3,29.53,West,277,6.8,9.2,92,0.00,OVC,,0.00,7.0,WeatherDisplay:10.37,2013-05-29 04:56:00,
2013-05-29 07:01:00,49.6,47.4,29.53,WNW,290,6.9,11.5,92,0.00,OVC,,0.00,7.0,WeatherDisplay:10.37,2013-05-29 05:01:00,
2013-05-29 07:06:00,49.6,47.4,29.53,WNW,290,4.6,10.4,92,0.00,OVC,,0.00,9.0,WeatherDisplay:10.37,2013-05-29 05:06:00,
2013-05-29 07:11:00,49.6,47.4,29.53,WNW,283,7.6,12.7,92,0.00,OVC,,0.00,18.0,WeatherDisplay:10.37,2013-05-29 05:11:00,
2013-05-29 07:16:00,49.6,47.4,29.53,West,263,5.3,8.1,92,0.00,OVC,,0.00,16.0,WeatherDisplay:10.37,2013-05-29 05:16:00,
2013-05-29 07:21:00,49.6,47.4,29.52,West,259,6.1,10.4,92,0.00,OVC,,0.00,21.0,WeatherDisplay:10.37,2013-05-29 05:21:00,
2013-05-29 07:26:00,49.7,47.5,29.53,West,278,6.3,9.2,92,0.00,OVC,,0.00,21.0,WeatherDisplay:10.37,2013-05-29 05:26:00,
2013-05-29 07:31:00,49.7,47.5,29.53,West,265,4.0,8.1,92,0.00,OVC,,0.00,21.0,WeatherDisplay:10.37,2013-05-29 05:31:00,
2013-05-29 07:36:00,49.8,47.5,29.52,West,261,7.8,10.4,92,0.00,OVC,,0.00,25.0,WeatherDisplay:10.37,2013-05-29 05:36:00,
2013-05-29 07:41:00,49.8,47.5,29.52,West,259,8.2,11.5,92,0.00,OVC,,0.00,30.0,WeatherDisplay:10.37,2013-05-29 05:41:00,
2013-05-29 07:46:00,49.7,47.5,29.52,West,262,7.6,11.0,92,0.00,OVC,,0.00,39.0,WeatherDisplay:10.37,2013-05-29 05:46:00,
2013-05-29 07:51:00,49.7,47.2,29.52,WNW,290,7.8,11.5,91,0.00,OVC,,0.00,46.0,WeatherDisplay:10.37,2013-05-29 05:51:00,
2013-05-29 07:56:00,49.8,47.3,29.52,West,263,5.5,11.5,91,0.00,OVC,,0.00,53.0,WeatherDisplay:10.37,2013-05-29 05:56:00,
2013-05-29 08:01:00,49.8,47.3,29.53,WNW,287,8.1,11.5,91,0.00,BKN,,0.00,65.0,WeatherDisplay:10.37,2013-05-29 06:01:00,
2013-05-29 08:06:00,49.8,47.3,29.53,WNW,284,7.2,12.0,91,0.00,BKN,,0.00,62.0,WeatherDisplay:10.37,2013-05-29 06:06:00,
2013-05-29 08:11:00,49.8,47.3,29.53,West,271,5.8,10.4,91,0.00,BKN,,0.00,77.0,WeatherDisplay:10.37,2013-05-29 06:11:00,
2013-05-29 08:16:00,49.9,47.1,29.53,West,263,7.1,11.5,90,0.00,BKN,,0.00,84.0,WeatherDisplay:10.37,2013-05-29 06:16:00,
2013-05-29 08:21:00,50.0,47.2,29.53,NW,307,8.1,12.7,90,0.00,BKN,,0.00,88.0,WeatherDisplay:10.37,2013-05-29 06:21:00,
2013-05-29 08:26:00,50.0,47.2,29.53,WNW,298,6.2,10.4,90,0.00,BKN,,0.00,100.0,WeatherDisplay:10.37,2013-05-29 06:26:00,
2013-05-29 08:31:00,50.1,47.3,29.53,West,281,5.4,9.0,90,0.00,OVC,,0.00,86.0,WeatherDisplay:10.37,2013-05-29 06:31:00,
2013-05-29 08:36:00,50.2,47.4,29.53,West,263,6.3,10.4,90,0.00,OVC,,0.00,83.0,WeatherDisplay:10.37,2013-05-29 06:36:00,
2013-05-29 08:41:00,50.3,47.2,29.53,West,266,8.3,11.5,89,0.00,OVC,,0.00,86.0,WeatherDisplay:10.37,2013-05-29 06:41:00,
2013-05-29 08:46:00,50.3,47.2,29.53,West,271,2.9,8.1,89,0.00,OVC,,0.00,76.0,WeatherDisplay:10.37,2013-05-29 06:46:00,
2013-05-29 08:51:00,50.2,46.8,29.54,WNW,289,7.0,11.5,88,0.00,OVC,,0.00,62.0,WeatherDisplay:10.37,2013-05-29 06:51:00,
2013-05-29 08:56:00,50.3,46.9,29.54,West,275,5.1,12.0,88,0.00,OVC,,0.00,91.0,WeatherDisplay:10.37,2013-05-29 06:56:00,
2013-05-29 09:01:00,50.3,46.9,29.54,WSW,250,5.4,12.7,88,0.00,BKN,,0.00,93.0,WeatherDisplay:10.37,2013-05-29 07:01:00,
2013-05-29 09:06:00,50.3,46.6,29.54,West,261,3.3,6.0,87,0.00,BKN,,0.00,70.0,WeatherDisplay:10.37,2013-05-29 07:06:00,
2013-05-29 09:11:00,50.4,46.7,29.54,WNW,301,5.3,9.2,87,0.00,BKN,,0.00,76.0,WeatherDisplay:10.37,2013-05-29 07:11:00,
2013-05-29 09:16:00,50.4,46.7,29.54,West,278,6.4,10.4,87,0.00,BKN,,0.00,88.0,WeatherDisplay:10.37,2013-05-29 07:16:00,
2013-05-29 09:21:00,50.5,46.8,29.54,WNW,282,4.8,6.9,87,0.00,BKN,,0.00,95.0,WeatherDisplay:10.37,2013-05-29 07:21:00,
2013-05-29 09:29:00,50.5,46.8,29.54,West,273,5.3,9.2,87,0.00,BKN,,0.00,109.0,WeatherDisplay:10.37,2013-05-29 07:29:00,
2013-05-29 09:34:00,50.5,46.8,29.54,West,265,8.7,12.7,87,0.00,BKN,,0.00,97.0,WeatherDisplay:10.37,2013-05-29 07:34:00,
2013-05-29 09:39:00,50.4,46.7,29.54,WNW,292,7.7,11.5,87,0.00,BKN,,0.00,72.0,WeatherDisplay:10.37,2013-05-29 07:39:00,
2013-05-29 09:44:00,50.2,46.5,29.54,West,266,6.3,16.1,87,0.00,BKN,,0.00,69.0,WeatherDisplay:10.37,2013-05-29 07:44:00,
2013-05-29 09:49:00,50.1,46.7,29.53,WNW,298,4.6,10.4,88,0.00,BKN,,0.00,104.0,WeatherDisplay:10.37,2013-05-29 07:49:00,
2013-05-29 09:54:00,49.9,46.5,29.53,NW,312,5.1,9.2,88,0.00,BKN,,0.00,98.0,WeatherDisplay:10.37,2013-05-29 07:54:00,
2013-05-29 09:59:00,49.9,46.8,29.53,West,265,4.2,8.1,89,0.00,BKN,,0.00,84.0,WeatherDisplay:10.37,2013-05-29 07:59:00,
2013-05-29 10:04:00,49.8,46.7,29.53,WNW,284,7.0,11.5,89,0.00,BKN,,0.00,100.0,WeatherDisplay:10.37,2013-05-29 08:04:00,
2013-05-29 10:09:00,49.7,46.9,29.53,West,263,8.8,17.3,90,0.00,BKN,,0.00,104.0,WeatherDisplay:10.37,2013-05-29 08:09:00,
2013-05-29 10:14:00,49.6,46.8,29.52,West,275,6.6,10.4,90,0.00,BKN,,0.00,83.0,WeatherDisplay:10.37,2013-05-29 08:14:00,
2013-05-29 10:19:00,49.6,46.8,29.52,WNW,296,5.9,8.1,90,0.00,BKN,,0.00,54.0,WeatherDisplay:10.37,2013-05-29 08:19:00,
2013-05-29 10:24:00,49.6,47.1,29.53,WSW,258,6.6,11.5,91,0.00,BKN,,0.00,46.0,WeatherDisplay:10.37,2013-05-29 08:24:00,
2013-05-29 10:29:00,49.6,47.1,29.53,WNW,290,8.0,9.0,91,0.00,BKN,,0.00,37.0,WeatherDisplay:10.37,2013-05-29 08:29:00,
2013-05-29 10:34:00,49.5,47.0,29.53,WNW,288,5.6,11.5,91,0.00,BKN,,0.01,39.0,WeatherDisplay:10.37,2013-05-29 08:34:00,
2013-05-29 10:39:00,49.5,47.3,29.52,West,281,7.4,12.7,92,0.02,RA,,0.02,56.0,WeatherDisplay:10.37,2013-05-29 08:39:00,
2013-05-29 10:44:00,49.5,47.3,29.52,West,271,5.1,8.1,92,0.02,RA,,0.02,58.0,WeatherDisplay:10.37,2013-05-29 08:44:00,
2013-05-29 10:49:00,49.5,47.5,29.52,West,270,8.2,13.0,93,0.02,RA,,0.02,79.0,WeatherDisplay:10.37,2013-05-29 08:49:00,
2013-05-29 10:54:00,49.4,47.4,29.52,West,273,6.0,11.5,93,0.02,RA,,0.02,90.0,WeatherDisplay:10.37,2013-05-29 08:54:00,
2013-05-29 10:59:00,49.4,47.4,29.52,West,273,6.6,10.4,93,0.02,RA,,0.02,83.0,WeatherDisplay:10.37,2013-05-29 08:59:00,
2013-05-29 11:04:00,49.4,47.7,29.52,WSW,250,9.2,11.5,94,0.02,RA,,0.02,86.0,WeatherDisplay:10.37,2013-05-29 09:04:00,
2013-05-29 11:09:00,49.5,47.8,29.52,West,262,8.2,9.2,94,0.02,RA,,0.02,81.0,WeatherDisplay:10.37,2013-05-29 09:09:00,
2013-05-29 11:14:00,49.4,47.7,29.52,West,265,6.2,12.7,94,0.02,RA,,0.02,69.0,WeatherDisplay:10.37,2013-05-29 09:14:00,
2013-05-29 11:19:00,49.6,47.9,29.52,West,263,4.8,6.9,94,0.02,BKN,,0.02,77.0,WeatherDisplay:10.37,2013-05-29 09:19:00,
2013-05-29 11:24:00,49.8,48.1,29.52,WNW,284,5.6,9.2,94,0.02,BKN,,0.02,98.0,WeatherDisplay:10.37,2013-05-29 09:24:00,
2013-05-29 11:29:00,49.7,48.0,29.52,WNW,287,7.2,8.0,94,0.02,BKN,,0.02,86.0,WeatherDisplay:10.37,2013-05-29 09:29:00,
2013-05-29 11:34:00,49.6,47.9,29.52,WNW,287,6.9,11.5,94,0.02,BKN,,0.02,113.0,WeatherDisplay:10.37,2013-05-29 09:34:00,
2013-05-29 11:39:00,49.5,47.8,29.52,West,278,6.3,10.0,94,0.01,BKN,,0.02,118.0,WeatherDisplay:10.37,2013-05-29 09:39:00,
2013-05-29 11:44:00,49.7,48.0,29.52,West,266,4.5,11.5,94,0.01,BKN,,0.02,128.0,WeatherDisplay:10.37,2013-05-29 09:44:00,
2013-05-29 11:49:00,49.8,48.1,29.52,WNW,293,7.6,15.0,94,0.00,BKN,,0.02,113.0,WeatherDisplay:10.37,2013-05-29 09:49:00,
2013-05-29 11:54:00,49.8,48.1,29.52,West,259,9.8,16.1,94,0.00,BKN,,0.02,95.0,WeatherDisplay:10.37,2013-05-29 09:54:00,
2013-05-29 11:59:00,49.8,48.1,29.52,West,261,7.2,11.5,94,0.00,BKN,,0.02,79.0,WeatherDisplay:10.37,2013-05-29 09:59:00,
2013-05-29 12:04:00,49.8,48.1,29.52,West,268,8.8,12.0,94,0.00,BKN,,0.02,79.0,WeatherDisplay:10.37,2013-05-29 10:04:00,
2013-05-29 12:09:00,49.8,48.1,29.52,West,260,8.6,12.7,94,0.00,BKN,,0.02,74.0,WeatherDisplay:10.37,2013-05-29 10:09:00,
2013-05-29 12:14:00,49.8,48.1,29.53,WNW,292,7.3,8.1,94,0.00,BKN,,0.02,81.0,WeatherDisplay:10.37,2013-05-29 10:14:00,
2013-05-29 12:19:00,49.9,48.2,29.53,WNW,291,8.8,15.0,94,0.00,BKN,,0.02,67.0,WeatherDisplay:10.37,2013-05-29 10:19:00,
2013-05-29 12:24:00,49.9,48.2,29.53,WNW,293,8.6,11.5,94,0.00,BKN,,0.02,76.0,WeatherDisplay:10.37,2013-05-29 10:24:00,
2013-05-29 12:29:00,49.9,48.2,29.53,WNW,296,6.7,16.1,94,0.00,BKN,,0.02,79.0,WeatherDisplay:10.37,2013-05-29 10:29:00,
2013-05-29 12:34:00,50.1,48.4,29.53,West,270,8.8,10.4,94,0.00,BKN,,0.02,81.0,WeatherDisplay:10.37,2013-05-29 10:34:00,
2013-05-29 12:39:00,50.0,48.3,29.53,WNW,296,5.6,11.5,94,0.00,BKN,,0.02,86.0,WeatherDisplay:10.37,2013-05-29 10:39:00,
2013-05-29 12:44:00,50.2,48.5,29.53,West,269,3.8,6.0,94,0.00,BKN,,0.02,77.0,WeatherDisplay:10.37,2013-05-29 10:44:00,
2013-05-29 12:49:00,50.3,48.6,29.53,WNW,296,5.8,11.5,94,0.00,BKN,,0.02,70.0,WeatherDisplay:10.37,2013-05-29 10:49:00,
2013-05-29 12:54:00,50.3,48.6,29.53,West,269,5.7,7.0,94,0.00,BKN,,0.02,74.0,WeatherDisplay:10.37,2013-05-29 10:54:00,
2013-05-29 12:59:00,50.3,48.6,29.53,WNW,294,5.3,9.2,94,0.00,BKN,,0.02,76.0,WeatherDisplay:10.37,2013-05-29 10:59:00,
2013-05-29 13:04:00,50.3,48.6,29.54,West,276,6.4,8.1,94,0.00,BKN,,0.02,76.0,WeatherDisplay:10.37,2013-05-29 11:04:00,
2013-05-29 13:09:00,50.2,48.5,29.53,WNW,288,5.9,11.5,94,0.00,BKN,,0.02,76.0,WeatherDisplay:10.37,2013-05-29 11:09:00,
2013-05-29 13:14:00,50.3,48.6,29.54,WNW,283,4.1,4.6,94,0.00,BKN,,0.02,65.0,WeatherDisplay:10.37,2013-05-29 11:14:00,
2013-05-29 13:19:00,50.3,48.6,29.54,WNW,283,5.1,8.1,94,0.00,BKN,,0.02,69.0,WeatherDisplay:10.37,2013-05-29 11:19:00,
2013-05-29 13:24:00,50.2,48.5,29.54,WSW,254,4.0,10.4,94,0.00,BKN,,0.02,83.0,WeatherDisplay:10.37,2013-05-29 11:24:00,
2013-05-29 13:29:00,50.2,48.5,29.54,WNW,285,6.8,6.8,94,0.00,BKN,,0.02,90.0,WeatherDisplay:10.37,2013-05-29 11:29:00,
2013-05-29 13:34:00,50.1,48.4,29.54,West,268,6.1,10.4,94,0.00,BKN,,0.02,84.0,WeatherDisplay:10.37,2013-05-29 11:34:00,
2013-05-29 13:39:00,50.2,48.5,29.54,West,278,4.4,8.1,94,0.00,BKN,,0.02,109.0,WeatherDisplay:10.37,2013-05-29 11:39:00,
2013-05-29 13:44:00,50.1,48.4,29.54,WNW,290,6.6,11.5,94,0.00,BKN,,0.02,90.0,WeatherDisplay:10.37,2013-05-29 11:44:00,
2013-05-29 13:49:00,50.1,48.4,29.54,West,270,5.4,5.4,94,0.00,BKN,,0.02,97.0,WeatherDisplay:10.37,2013-05-29 11:49:00,
2013-05-29 13:54:00,50.2,48.5,29.54,West,265,7.7,10.4,94,0.00,BKN,,0.02,116.0,WeatherDisplay:10.37,2013-05-29 11:54:00,
2013-05-29 13:59:00,50.1,48.4,29.54,West,259,5.9,9.2,94,0.00,BKN,,0.02,113.0,WeatherDisplay:10.37,2013-05-29 11:59:00,
2013-05-29 14:04:00,50.3,48.6,29.54,West,261,6.4,11.5,94,0.00,BKN,,0.02,91.0,WeatherDisplay:10.37,2013-05-29 12:04:00,
2013-05-29 14:09:00,50.2,48.5,29.54,WSW,255,7.5,9.2,94,0.00,BKN,,0.02,102.0,WeatherDisplay:10.37,2013-05-29 12:09:00,
2013-05-29 14:14:00,50.2,48.5,29.54,WSW,255,5.2,11.5,94,0.00,BKN,,0.02,142.0,WeatherDisplay:10.37,2013-05-29 12:14:00,
2013-05-29 14:19:00,50.3,48.6,29.54,West,261,6.2,11.5,94,0.00,BKN,,0.02,149.0,WeatherDisplay:10.37,2013-05-29 12:19:00,
2013-05-29 14:24:00,50.5,48.8,29.54,West,261,6.4,10.0,94,0.00,BKN,,0.02,127.0,WeatherDisplay:10.37,2013-05-29 12:24:00,
2013-05-29 14:29:00,50.5,48.5,29.54,WSW,254,5.7,6.9,93,0.00,BKN,,0.02,100.0,WeatherDisplay:10.37,2013-05-29 12:29:00,
2013-05-29 14:34:00,50.6,48.9,29.54,WSW,248,6.5,8.1,94,0.00,BKN,,0.02,93.0,WeatherDisplay:10.37,2013-05-29 12:34:00,
2013-05-29 14:39:00,50.6,48.6,29.54,West,271,3.5,6.9,93,0.00,BKN,,0.02,109.0,WeatherDisplay:10.37,2013-05-29 12:39:00,
2013-05-29 14:44:00,50.6,48.6,29.54,WSW,257,6.5,10.4,93,0.00,BKN,,0.02,118.0,WeatherDisplay:10.37,2013-05-29 12:44:00,
2013-05-29 14:49:00,50.7,48.7,29.54,WSW,257,5.9,8.0,93,0.00,BKN,,0.02,125.0,WeatherDisplay:10.37,2013-05-29 12:49:00,
2013-05-29 14:54:00,50.8,48.8,29.54,West,265,5.1,8.1,93,0.00,BKN,,0.02,165.0,WeatherDisplay:10.37,2013-05-29 12:54:00,
2013-05-29 14:59:00,51.0,49.0,29.54,WSW,246,6.5,8.1,93,0.00,BKN,,0.02,107.0,WeatherDisplay:10.37,2013-05-29 12:59:00,
2013-05-29 15:04:00,51.1,49.1,29.54,WSW,256,5.9,9.2,93,0.00,BKN,,0.02,98.0,WeatherDisplay:10.37,2013-05-29 13:04:00,
2013-05-29 15:09:00,51.0,48.7,29.54,West,276,4.7,8.1,92,0.00,BKN,,0.02,86.0,WeatherDisplay:10.37,2013-05-29 13:09:00,
2013-05-29 15:14:00,50.9,48.6,29.55,West,266,6.1,6.9,92,0.00,BKN,,0.02,116.0,WeatherDisplay:10.37,2013-05-29 13:14:00,
2013-05-29 15:19:00,51.0,48.7,29.55,West,263,6.0,6.9,92,0.00,BKN,,0.02,111.0,WeatherDisplay:10.37,2013-05-29 13:19:00,
2013-05-29 15:24:00,51.1,48.8,29.54,WSW,257,4.9,9.2,92,0.00,BKN,,0.02,98.0,WeatherDisplay:10.37,2013-05-29 13:24:00,
2013-05-29 15:29:00,51.3,49.3,29.55,WSW,250,4.9,9.2,93,0.00,BKN,,0.02,98.0,WeatherDisplay:10.37,2013-05-29 13:29:00,
2013-05-29 15:34:00,51.3,49.0,29.55,West,265,7.9,11.0,92,0.00,OVC,,0.02,95.0,WeatherDisplay:10.37,2013-05-29 13:34:00,
2013-05-29 15:39:00,51.1,48.8,29.55,WSW,246,7.5,11.5,92,0.00,OVC,,0.02,127.0,WeatherDisplay:10.37,2013-05-29 13:39:00,
2013-05-29 15:44:00,51.1,48.8,29.55,West,264,5.6,9.2,92,0.00,OVC,,0.02,144.0,WeatherDisplay:10.37,2013-05-29 13:44:00,
2013-05-29 15:49:00,51.1,48.8,29.54,WNW,296,5.6,10.4,92,0.00,OVC,,0.02,139.0,WeatherDisplay:10.37,2013-05-29 13:49:00,
2013-05-29 15:54:00,51.1,48.8,29.54,WNW,288,5.1,11.5,92,0.00,OVC,,0.02,151.0,WeatherDisplay:10.37,2013-05-29 13:54:00,
2013-05-29 15:59:00,51.0,48.7,29.55,West,279,4.1,5.8,92,0.00,OVC,,0.02,128.0,WeatherDisplay:10.37,2013-05-29 13:59:00,
2013-05-29 16:04:00,51.1,49.1,29.55,WSW,256,4.2,9.2,93,0.00,OVC,,0.02,146.0,WeatherDisplay:10.37,2013-05-29 14:04:00,
2013-05-29 16:09:00,51.1,49.1,29.55,West,271,4.5,8.1,93,0.00,OVC,,0.02,113.0,WeatherDisplay:10.37,2013-05-29 14:09:00,
2013-05-29 16:14:00,51.1,49.1,29.55,West,259,7.3,10.4,93,0.00,OVC,,0.02,128.0,WeatherDisplay:10.37,2013-05-29 14:14:00,
2013-05-29 16:19:00,51.0,49.0,29.55,West,277,4.5,9.2,93,0.00,OVC,,0.02,144.0,WeatherDisplay:10.37,2013-05-29 14:19:00,
2013-05-29 16:24:00,51.1,49.1,29.55,West,275,4.5,8.1,93,0.00,OVC,,0.02,218.0,WeatherDisplay:10.37,2013-05-29 14:24:00,
2013-05-29 16:29:00,51.2,49.2,29.54,West,279,5.6,8.0,93,0.00,OVC,,0.02,192.0,WeatherDisplay:10.37,2013-05-29 14:29:00,
2013-05-29 16:34:00,51.1,49.1,29.54,West,272,4.4,6.9,93,0.00,OVC,,0.02,146.0,WeatherDisplay:10.37,2013-05-29 14:34:00,
2013-05-29 16:39:00,51.4,49.4,29.55,West,259,3.8,6.9,93,0.00,OVC,,0.02,178.0,WeatherDisplay:10.37,2013-05-29 14:39:00,
2013-05-29 16:44:00,51.5,49.5,29.55,West,276,4.6,9.2,93,0.00,OVC,,0.02,125.0,WeatherDisplay:10.37,2013-05-29 14:44:00,
2013-05-29 16:49:00,51.7,49.7,29.55,West,269,3.7,8.1,93,0.00,OVC,,0.02,91.0,WeatherDisplay:10.37,2013-05-29 14:49:00,
2013-05-29 16:54:00,51.6,49.6,29.55,West,261,4.1,8.0,93,0.00,OVC,,0.02,69.0,WeatherDisplay:10.37,2013-05-29 14:54:00,
2013-05-29 16:59:00,51.6,49.6,29.55,West,263,3.9,6.9,93,0.00,OVC,,0.02,62.0,WeatherDisplay:10.37,2013-05-29 14:59:00,
2013-05-29 17:04:00,51.7,49.7,29.55,West,276,4.2,6.0,93,0.00,BKN,,0.02,67.0,WeatherDisplay:10.37,2013-05-29 15:04:00,
2013-05-29 17:09:00,51.6,49.6,29.55,WNW,290,6.7,10.4,93,0.00,BKN,,0.02,86.0,WeatherDisplay:10.37,2013-05-29 15:09:00,
2013-05-29 17:14:00,51.7,49.7,29.55,West,281,3.4,4.6,93,0.00,BKN,,0.02,67.0,WeatherDisplay:10.37,2013-05-29 15:14:00,
2013-05-29 17:19:00,51.9,49.9,29.55,WNW,282,4.3,5.8,93,0.00,BKN,,0.02,79.0,WeatherDisplay:10.37,2013-05-29 15:19:00,
2013-05-29 17:24:00,52.0,50.3,29.55,WNW,282,3.3,4.0,94,0.00,BKN,,0.02,91.0,WeatherDisplay:10.37,2013-05-29 15:24:00,
2013-05-29 17:29:00,52.2,50.5,29.55,WNW,282,0.9,4.6,94,0.00,BKN,,0.02,120.0,WeatherDisplay:10.37,2013-05-29 15:29:00,
2013-05-29 17:34:00,52.4,50.7,29.55,WNW,282,2.1,3.5,94,0.00,OVC,,0.02,120.0,WeatherDisplay:10.37,2013-05-29 15:34:00,
2013-05-29 17:39:00,52.5,50.5,29.55,WNW,284,5.1,5.8,93,0.00,OVC,,0.02,100.0,WeatherDisplay:10.37,2013-05-29 15:39:00,
2013-05-29 17:44:00,52.5,50.5,29.55,WNW,285,4.8,5.0,93,0.00,OVC,,0.02,109.0,WeatherDisplay:10.37,2013-05-29 15:44:00,
2013-05-29 17:49:00,52.6,50.6,29.55,WNW,295,6.5,9.2,93,0.00,OVC,,0.02,137.0,WeatherDisplay:10.37,2013-05-29 15:49:00,
2013-05-29 17:55:00,52.9,50.9,29.55,WNW,297,6.3,6.9,93,0.00,OVC,,0.02,272.0,WeatherDisplay:10.37,2013-05-29 15:55:00,
2013-05-29 18:00:00,53.2,50.9,29.55,WNW,299,5.9,5.9,92,0.00,OVC,,0.02,255.0,WeatherDisplay:10.37,2013-05-29 16:00:00,
2013-05-29 18:05:00,53.3,51.0,29.55,WNW,298,3.9,5.8,92,0.00,OVC,,0.02,417.0,WeatherDisplay:10.37,2013-05-29 16:05:00,
2013-05-29 18:10:00,53.8,51.5,29.55,WNW,286,6.7,8.1,92,0.00,OVC,,0.02,459.0,WeatherDisplay:10.37,2013-05-29 16:10:00,
2013-05-29 18:15:00,54.5,51.9,29.55,NW,306,5.2,6.9,91,0.00,OVC,,0.02,410.0,WeatherDisplay:10.37,2013-05-29 16:15:00,
2013-05-29 18:20:00,54.9,52.0,29.55,NW,315,5.0,6.9,90,0.00,OVC,,0.02,269.0,WeatherDisplay:10.37,2013-05-29 16:20:00,
2013-05-29 18:25:00,55.2,52.0,29.55,NNW,336,4.8,8.1,89,0.00,OVC,,0.02,255.0,WeatherDisplay:10.37,2013-05-29 16:25:00,
2013-05-29 18:30:00,55.1,51.6,29.55,WNW,300,4.4,5.8,88,0.00,OVC,,0.02,223.0,WeatherDisplay:10.37,2013-05-29 16:30:00,
2013-05-29 18:35:00,55.2,51.7,29.55,NNW,327,3.8,5.8,88,0.00,FEW,,0.02,123.0,WeatherDisplay:10.37,2013-05-29 16:35:00,
2013-05-29 18:40:00,55.3,51.8,29.55,NW,325,6.2,6.9,88,0.00,FEW,,0.02,113.0,WeatherDisplay:10.37,2013-05-29 16:40:00,
2013-05-29 18:45:00,55.3,51.8,29.55,NNW,333,3.0,5.8,88,0.02,RA,,0.04,127.0,WeatherDisplay:10.37,2013-05-29 16:45:00,
2013-05-29 18:50:00,55.1,51.9,29.55,NW,324,5.6,8.1,89,0.02,RA,,0.05,165.0,WeatherDisplay:10.37,2013-05-29 16:50:00,
2013-05-29 18:55:00,54.8,51.9,29.55,WNW,302,6.9,6.9,90,0.02,RA,,0.05,181.0,WeatherDisplay:10.37,2013-05-29 16:55:00,
2013-05-29 19:00:00,54.7,51.8,29.56,NW,319,5.7,10.0,90,0.02,RA,,0.05,220.0,WeatherDisplay:10.37,2013-05-29 17:00:00,
2013-05-29 19:05:00,54.6,52.0,29.56,NW,317,6.0,8.1,91,0.02,RA,,0.05,214.0,WeatherDisplay:10.37,2013-05-29 17:05:00,
2013-05-29 19:10:00,54.4,51.8,29.56,NW,319,5.2,6.9,91,0.02,RA,,0.05,141.0,WeatherDisplay:10.37,2013-05-29 17:10:00,
2013-05-29 19:15:00,54.4,51.8,29.56,NNW,329,3.7,8.1,91,0.02,FEW,,0.05,142.0,WeatherDisplay:10.37,2013-05-29 17:15:00,
2013-05-29 19:20:00,54.2,51.3,29.56,WNW,302,4.1,5.8,90,0.02,FEW,,0.05,156.0,WeatherDisplay:10.37,2013-05-29 17:20:00,
2013-05-29 19:25:00,54.2,51.6,29.56,NW,321,4.4,8.1,91,0.02,FEW,,0.05,257.0,WeatherDisplay:10.37,2013-05-29 17:25:00,
2013-05-29 19:30:00,54.3,51.7,29.56,NW,326,7.0,10.4,91,0.02,FEW,,0.05,130.0,WeatherDisplay:10.37,2013-05-29 17:30:00,
2013-05-29 19:35:00,54.4,51.8,29.56,NNW,338,5.9,6.9,91,0.02,BKN,,0.05,114.0,WeatherDisplay:10.37,2013-05-29 17:35:00,
2013-05-29 19:40:00,54.2,51.3,29.56,NNW,336,3.0,6.9,90,0.02,BKN,,0.05,79.0,WeatherDisplay:10.37,2013-05-29 17:40:00,
2013-05-29 19:45:00,53.9,51.0,29.56,NW,320,4.9,7.0,90,0.01,BKN,,0.05,77.0,WeatherDisplay:10.37,2013-05-29 17:45:00,
2013-05-29 19:50:00,53.8,50.9,29.56,NW,315,2.2,3.5,90,0.00,BKN,,0.05,72.0,WeatherDisplay:10.37,2013-05-29 17:50:00,
2013-05-29 19:55:00,53.8,51.2,29.56,NNW,329,5.3,6.9,91,0.00,BKN,,0.05,76.0,WeatherDisplay:10.37,2013-05-29 17:55:00,
2013-05-29 20:00:00,53.5,50.6,29.57,NNW,330,5.8,9.0,90,0.00,BKN,,0.05,88.0,WeatherDisplay:10.37,2013-05-29 18:00:00,
2013-05-29 20:05:00,53.4,50.5,29.57,NNW,345,4.3,9.2,90,0.00,BKN,,0.05,79.0,WeatherDisplay:10.37,2013-05-29 18:05:00,
2013-05-29 20:10:00,53.3,50.7,29.57,NNW,342,5.1,9.2,91,0.00,BKN,,0.05,70.0,WeatherDisplay:10.37,2013-05-29 18:10:00,
2013-05-29 20:15:00,53.2,50.6,29.57,NNW,331,6.7,9.0,91,0.00,BKN,,0.05,56.0,WeatherDisplay:10.37,2013-05-29 18:15:00,
2013-05-29 20:20:00,53.1,50.5,29.57,NNW,346,5.7,9.2,91,0.00,BKN,,0.05,54.0,WeatherDisplay:10.37,2013-05-29 18:20:00,
2013-05-29 20:25:00,53.0,50.4,29.57,NW,324,4.6,5.8,91,0.00,BKN,,0.05,62.0,WeatherDisplay:10.37,2013-05-29 18:25:00,
2013-05-29 20:30:00,52.9,50.3,29.57,NNW,331,2.6,5.8,91,0.00,BKN,,0.05,46.0,WeatherDisplay:10.37,2013-05-29 18:30:00,
2013-05-29 20:35:00,52.8,50.2,29.57,NW,316,2.6,5.8,91,0.00,BKN,,0.05,51.0,WeatherDisplay:10.37,2013-05-29 18:35:00,
2013-05-29 20:40:00,52.8,50.5,29.57,NW,316,2.0,4.6,92,0.00,BKN,,0.05,37.0,WeatherDisplay:10.37,2013-05-29 18:40:00,
2013-05-29 20:45:00,52.7,50.4,29.57,NW,321,3.9,6.9,92,0.00,BKN,,0.05,32.0,WeatherDisplay:10.37,2013-05-29 18:45:00,
2013-05-29 20:50:00,52.8,50.5,29.58,NNW,332,5.7,6.9,92,0.00,BKN,,0.05,26.0,WeatherDisplay:10.37,2013-05-29 18:50:00,
2013-05-29 20:55:00,52.6,50.3,29.58,NW,320,3.9,6.9,92,0.00,BKN,,0.05,25.0,WeatherDisplay:10.37,2013-05-29 18:55:00,
2013-05-29 21:00:00,52.6,50.3,29.58,NW,311,3.3,6.9,92,0.00,BKN,,0.05,33.0,WeatherDisplay:10.37,2013-05-29 19:00:00,
2013-05-29 21:05:00,52.5,50.2,29.58,NW,309,1.4,3.5,92,0.00,OVC,,0.05,28.0,WeatherDisplay:10.37,2013-05-29 19:05:00,
2013-05-29 21:10:00,52.5,50.2,29.58,NW,309,2.9,3.5,92,0.00,OVC,,0.05,23.0,WeatherDisplay:10.37,2013-05-29 19:10:00,
2013-05-29 21:15:00,52.5,50.2,29.58,NW,309,3.6,4.0,92,0.00,OVC,,0.05,16.0,WeatherDisplay:10.37,2013-05-29 19:15:00,
2013-05-29 21:20:00,52.5,50.2,29.59,NNW,344,2.7,8.1,92,0.00,OVC,,0.05,11.0,WeatherDisplay:10.37,2013-05-29 19:20:00,
2013-05-29 21:25:00,52.5,50.2,29.59,NNW,344,2.5,3.5,92,0.00,OVC,,0.05,9.0,WeatherDisplay:10.37,2013-05-29 19:25:00,
2013-05-29 21:30:00,52.5,50.2,29.59,NNW,332,4.4,7.0,92,0.00,OVC,,0.05,5.0,WeatherDisplay:10.37,2013-05-29 19:30:00,
2013-05-29 21:35:00,52.4,50.1,29.59,NNW,336,5.5,7.0,92,0.00,OVC,,0.05,5.0,WeatherDisplay:10.37,2013-05-29 19:35:00,
2013-05-29 21:40:00,52.3,50.0,29.59,NNW,332,6.9,9.2,92,0.00,OVC,,0.05,0.0,WeatherDisplay:10.37,2013-05-29 19:40:00,
2013-05-29 21:45:00,52.3,50.0,29.59,NNW,334,5.4,8.1,92,0.00,OVC,,0.05,0.0,WeatherDisplay:10.37,2013-05-29 19:45:00,
2013-05-29 21:50:00,52.3,50.0,29.60,NW,325,4.0,5.8,92,0.00,OVC,,0.05,0.0,WeatherDisplay:10.37,2013-05-29 19:50:00,
2013-05-29 21:55:00,52.2,49.9,29.60,NNW,331,4.6,11.5,92,0.00,OVC,,0.05,0.0,WeatherDisplay:10.37,2013-05-29 19:55:00,
2013-05-29 22:00:00,52.1,49.8,29.60,NNW,328,4.9,8.1,92,0.00,OVC,,0.05,0.0,WeatherDisplay:10.37,2013-05-29 20:00:00,
2013-05-29 22:05:00,52.1,49.8,29.60,NNW,329,1.5,9.2,92,0.00,OVC,,0.05,0.0,WeatherDisplay:10.37,2013-05-29 20:05:00,
2013-05-29 22:10:00,52.0,49.7,29.60,NNW,329,1.3,4.0,92,0.00,OVC,,0.05,0.0,WeatherDisplay:10.37,2013-05-29 20:10:00,
2013-05-29 22:15:00,52.0,50.0,29.60,NNW,329,1.6,2.3,93,0.00,OVC,,0.05,0.0,WeatherDisplay:10.37,2013-05-29 20:15:00,
2013-05-29 22:20:00,52.0,50.0,29.60,NNW,329,2.0,3.5,93,0.00,OVC,,0.05,0.0,WeatherDisplay:10.37,2013-05-29 20:20:00,
2013-05-29 22:26:00,51.9,49.9,29.60,NNW,329,3.5,4.6,93,0.00,OVC,,0.05,0.0,WeatherDisplay:10.37,2013-05-29 20:26:00,
2013-05-29 22:31:00,51.9,49.9,29.60,NNW,327,3.1,5.8,93,0.00,OVC,,0.05,0.0,WeatherDisplay:10.37,2013-05-29 20:31:00,
2013-05-29 22:36:00,51.8,49.8,29.60,NW,325,3.8,4.0,93,0.00,OVC,,0.05,0.0,WeatherDisplay:10.37,2013-05-29 20:36:00,
2013-05-29 22:41:00,51.8,49.8,29.60,NW,325,3.9,6.9,93,0.00,OVC,,0.05,0.0,WeatherDisplay:10.37,2013-05-29 20:41:00,
2013-05-29 22:46:00,51.8,49.8,29.60,NW,324,2.5,5.8,93,0.00,OVC,,0.05,0.0,WeatherDisplay:10.37,2013-05-29 20:46:00,
2013-05-29 22:51:00,51.8,49.8,29.60,NNW,328,4.5,8.1,93,0.00,OVC,,0.05,0.0,WeatherDisplay:10.37,2013-05-29 20:51:00,
2013-05-29 22:56:00,51.8,49.8,29.60,NW,326,4.2,6.9,93,0.00,OVC,,0.05,0.0,WeatherDisplay:10.37,2013-05-29 20:56:00,
2013-05-29 23:01:00,51.7,49.7,29.60,NNW,329,2.6,3.5,93,0.00,FEW,,0.05,0.0,WeatherDisplay:10.37,2013-05-29 21:01:00,
2013-05-29 23:06:00,51.7,49.7,29.60,NNW,329,3.5,5.8,93,0.00,FEW,,0.05,0.0,WeatherDisplay:10.37,2013-05-29 21:06:00,
2013-05-29 23:11:00,51.7,49.7,29.60,NNW,329,4.4,5.8,93,0.00,FEW,,0.05,0.0,WeatherDisplay:10.37,2013-05-29 21:11:00,
2013-05-29 23:16:00,51.7,49.7,29.60,NNW,329,5.6,5.8,93,0.00,FEW,,0.05,0.0,WeatherDisplay:10.37,2013-05-29 21:16:00,
2013-05-29 23:21:00,51.6,49.6,29.60,NNW,329,4.5,5.8,93,0.00,FEW,,0.05,0.0,WeatherDisplay:10.37,2013-05-29 21:21:00,
2013-05-29 23:26:00,51.6,49.6,29.60,NNW,336,5.8,8.1,93,0.00,FEW,,0.05,0.0,WeatherDisplay:10.37,2013-05-29 21:26:00,
2013-05-29 23:31:00,51.7,49.7,29.60,NNW,336,5.0,5.0,93,0.00,FEW,,0.05,0.0,WeatherDisplay:10.37,2013-05-29 21:31:00,
2013-05-29 23:36:00,51.7,49.7,29.60,NNW,336,5.0,5.0,93,0.00,FEW,,0.05,0.0,WeatherDisplay:10.37,2013-05-29 21:36:00,
2013-05-29 23:41:00,51.7,49.7,29.60,NNW,334,2.2,4.6,93,0.00,-RA,,0.05,0.0,WeatherDisplay:10.37,2013-05-29 21:41:00,
2013-05-29 23:46:00,51.7,49.7,29.60,NNW,334,3.3,5.8,93,0.00,-RA,,0.05,0.0,WeatherDisplay:10.37,2013-05-29 21:46:00,
2013-05-29 23:51:00,51.7,49.7,29.61,NNW,334,0.7,5.8,93,0.00,-RA,,0.05,0.0,WeatherDisplay:10.37,2013-05-29 21:51:00,
2013-05-29 23:56:00,51.7,49.7,29.61,NNW,333,3.1,5.8,93,0.00,-RA,,0.05,0.0,WeatherDisplay:10.37,2013-05-29 21:56:00,